Time;durP1;ratioP1;P1;durP2;ratioP2;P2;SDS_P1;SDS_P2;PMS_P1;PMS_P2;Temp;Humidity;BMP_temperature;BMP_pressure;BME280_temperature;BME280_humidity;BME280_pressure;Samples;Min_cycle;Max_cycle;Signal;HPM_P1;HPM_P2
2022/01/22 00:01:09;;;;;;;15.52;3.20;;;6.00;99.90;;;;;;5092914;28;20048;-68
2022/01/22 00:03:35;;;;;;;17.05;3.55;;;6.00;99.90;;;;;;5094436;28;20386;-69
2022/01/22 00:06:00;;;;;;;19.60;3.58;;;6.00;99.90;;;;;;5087382;28;20128;-67
2022/01/22 00:08:26;;;;;;;21.05;4.00;;;6.00;99.90;;;;;;5089944;28;20056;-69
2022/01/22 00:10:52;;;;;;;16.92;3.35;;;6.00;99.90;;;;;;5073372;28;20051;-68
2022/01/22 00:15:46;;;;;;;18.45;3.40;;;6.00;99.90;;;;;;5106888;28;20056;-68
2022/01/22 00:18:12;;;;;;;15.02;2.75;;;6.00;99.90;;;;;;5106534;28;20515;-69
2022/01/22 00:20:38;;;;;;;19.33;3.40;;;6.00;99.90;;;;;;5110296;28;20036;-67
2022/01/22 00:23:05;;;;;;;16.95;2.72;;;6.00;99.90;;;;;;5092837;28;20413;-68
2022/01/22 00:25:31;;;;;;;9.63;2.40;;;6.00;99.90;;;;;;5094507;28;20130;-68
2022/01/22 00:27:56;;;;;;;11.20;2.45;;;6.00;99.90;;;;;;5092470;28;20044;-68
2022/01/22 00:30:25;;;;;;;12.35;2.65;;;6.00;99.90;;;;;;5094384;28;20056;-68
2022/01/22 00:32:51;;;;;;;11.50;2.42;;;6.00;99.90;;;;;;5091698;28;20047;-67
2022/01/22 00:35:19;;;;;;;9.00;2.38;;;6.00;99.90;;;;;;5093420;28;20118;-68
2022/01/22 00:37:47;;;;;;;8.82;2.53;;;6.00;99.90;;;;;;5094190;28;20052;-68
2022/01/22 00:40:15;;;;;;;16.77;2.63;;;6.00;99.90;;;;;;5093618;28;20055;-68
2022/01/22 00:42:42;;;;;;;17.08;3.22;;;6.10;99.90;;;;;;5092745;28;20058;-68
2022/01/22 00:45:09;;;;;;;12.90;2.88;;;6.00;99.90;;;;;;5092953;28;20404;-69
2022/01/22 00:47:34;;;;;;;15.27;2.90;;;6.00;99.90;;;;;;5075069;28;20137;-68
2022/01/22 00:50:00;;;;;;;16.42;2.45;;;6.00;99.90;;;;;;5091947;28;20059;-66
2022/01/22 00:52:26;;;;;;;13.38;2.70;;;6.10;99.90;;;;;;5092840;28;20051;-67
2022/01/22 00:54:51;;;;;;;11.52;2.22;;;6.10;99.90;;;;;;5072103;28;20056;-68
2022/01/22 00:57:17;;;;;;;20.63;3.00;;;6.10;99.90;;;;;;5072425;28;20106;-67
2022/01/22 00:59:42;;;;;;;15.20;2.78;;;6.10;99.90;;;;;;5071919;28;20377;-67
2022/01/22 01:02:08;;;;;;;14.25;2.47;;;6.10;99.90;;;;;;5072758;28;20044;-68
2022/01/22 01:04:35;;;;;;;19.52;4.25;;;6.10;99.90;;;;;;5089995;28;20060;-68
2022/01/22 01:07:02;;;;;;;17.77;2.90;;;6.10;99.90;;;;;;5076840;28;20048;-68
2022/01/22 01:09:27;;;;;;;15.93;3.15;;;6.20;99.90;;;;;;5093178;28;20381;-67
2022/01/22 01:11:58;;;;;;;9.90;3.03;;;6.20;99.90;;;;;;5091848;28;20058;-68
2022/01/22 01:14:31;;;;;;;11.48;2.17;;;6.20;99.90;;;;;;5093206;28;20496;-66
2022/01/22 01:33:18;;;;;;;10.88;1.95;;;6.20;99.90;;;;;;5085733;28;20051;-68
2022/01/22 01:35:44;;;;;;;13.38;1.92;;;6.20;99.90;;;;;;5092674;28;20074;-68
2022/01/22 01:38:09;;;;;;;14.23;2.33;;;6.20;99.90;;;;;;5091409;28;20047;-67
2022/01/22 01:40:40;;;;;;;13.73;2.10;;;6.20;99.90;;;;;;5091942;28;20130;-67
2022/01/22 01:43:12;;;;;;;12.35;2.67;;;6.20;99.90;;;;;;5091768;28;20056;-68
2022/01/22 01:45:38;;;;;;;15.90;2.40;;;6.20;99.90;;;;;;5092133;28;20115;-66
2022/01/22 01:48:09;;;;;;;11.77;2.30;;;6.30;99.90;;;;;;5091528;28;20144;-67
2022/01/22 01:50:37;;;;;;;11.95;2.50;;;6.30;99.90;;;;;;5090737;28;20438;-68
2022/01/22 01:55:36;;;;;;;12.23;2.58;;;6.30;99.90;;;;;;5092086;28;20080;-67
2022/01/22 01:58:03;;;;;;;;;;;6.30;99.90;;;;;;5092114;28;20040;-68
2022/01/22 02:00:29;;;;;;;13.50;2.40;;;6.30;99.90;;;;;;5093063;28;20314;-67
2022/01/22 02:02:55;;;;;;;13.35;2.50;;;6.30;99.90;;;;;;5090872;28;20054;-67
2022/01/22 02:05:22;;;;;;;12.45;2.22;;;6.30;99.90;;;;;;5091128;28;20123;-68
2022/01/22 02:07:50;;;;;;;12.63;2.78;;;6.30;99.90;;;;;;5091282;28;20044;-69
2022/01/22 02:10:21;;;;;;;8.85;2.00;;;6.30;99.90;;;;;;5093165;28;20048;-67
2022/01/22 02:23:34;;;;;;;12.48;2.58;;;6.40;99.90;;;;;;5093440;28;20410;-68
2022/01/22 02:26:00;;;;;;;13.45;2.40;;;6.40;99.90;;;;;;5096535;28;20124;-66
2022/01/22 02:28:25;;;;;;;13.13;2.45;;;6.40;99.90;;;;;;5095303;28;20133;-67
2022/01/22 02:30:58;;;;;;;14.18;2.10;;;6.40;99.90;;;;;;5094785;28;20048;-67
2022/01/22 02:35:55;;;;;;;9.73;3.03;;;6.40;99.90;;;;;;5084607;28;20052;-68
2022/01/22 02:38:31;;;;;;;7.50;1.65;;;6.40;99.90;;;;;;5075812;28;20473;-67
2022/01/22 02:40:57;;;;;;;10.65;1.95;;;6.40;99.90;;;;;;5057862;28;20131;-68
2022/01/22 02:43:24;;;;;;;6.00;1.65;;;6.50;99.90;;;;;;5075065;28;20138;-66
2022/01/22 02:45:52;;;;;;;8.77;1.60;;;6.40;99.90;;;;;;5074275;28;20465;-68
2022/01/22 02:48:18;;;;;;;9.48;1.77;;;6.40;99.90;;;;;;5075908;28;20091;-66
2022/01/22 02:50:43;;;;;;;6.15;1.77;;;6.50;99.90;;;;;;5086460;28;20048;-67
2022/01/22 02:53:11;;;;;;;4.70;1.85;;;6.40;99.90;;;;;;5095152;28;20078;-67
2022/01/22 02:55:38;;;;;;;8.25;1.40;;;6.40;99.90;;;;;;5082937;28;20102;-67
2022/01/22 02:58:03;;;;;;;9.90;2.42;;;6.40;99.90;;;;;;5073961;28;20044;-67
2022/01/22 03:00:31;;;;;;;9.65;2.47;;;6.40;99.90;;;;;;5076350;28;20102;-68
2022/01/22 03:02:56;;;;;;;8.20;1.50;;;6.40;99.90;;;;;;5090730;28;20056;-67
2022/01/22 03:05:23;;;;;;;10.13;1.95;;;6.40;99.90;;;;;;5099752;28;20377;-68
2022/01/22 03:07:52;;;;;;;6.22;1.58;;;6.40;99.90;;;;;;5108350;28;20057;-68
2022/01/22 03:10:21;;;;;;;6.72;1.90;;;6.40;99.90;;;;;;5108048;28;20052;-68
2022/01/22 03:15:48;;;;;;;8.85;1.60;;;6.40;99.90;;;;;;5075350;28;20442;-68
2022/01/22 03:18:20;;;;;;;6.15;1.73;;;6.40;99.90;;;;;;5074257;28;20538;-67
2022/01/22 03:28:59;;;;;;;7.22;1.80;;;6.40;99.90;;;;;;5074915;28;20500;-66
2022/01/22 03:31:26;;;;;;;4.57;1.30;;;6.40;99.90;;;;;;5074665;28;20067;-68
2022/01/22 03:33:51;;;;;;;8.10;1.73;;;6.40;99.90;;;;;;5076974;28;20461;-67
2022/01/22 03:36:19;;;;;;;7.35;1.50;;;6.40;99.90;;;;;;5095126;28;20084;-66
2022/01/22 03:38:45;;;;;;;6.95;1.50;;;6.40;99.90;;;;;;5094929;28;20044;-69
2022/01/22 03:41:11;;;;;;;5.25;1.20;;;6.40;99.90;;;;;;5062528;28;20048;-68
2022/01/22 03:43:38;;;;;;;7.35;1.92;;;6.40;99.90;;;;;;5107477;28;20091;-67
2022/01/22 03:46:04;;;;;;;10.40;1.75;;;6.40;99.90;;;;;;5089124;28;20571;-68
2022/01/22 03:48:30;;;;;;;4.55;1.15;;;6.40;99.90;;;;;;5093589;28;20138;-67
2022/01/22 03:50:55;;;;;;;6.38;2.15;;;6.40;99.90;;;;;;5093474;28;20146;-68
2022/01/22 03:53:21;;;;;;;5.25;1.52;;;6.40;99.90;;;;;;5093765;28;20055;-67
2022/01/22 03:55:59;;;;;;;4.80;1.85;;;6.40;99.90;;;;;;5095316;28;20091;-68
2022/01/22 03:58:25;;;;;;;8.63;2.00;;;6.40;99.90;;;;;;5093777;28;20052;-68
2022/01/22 04:01:01;;;;;;;6.13;1.80;;;6.40;99.90;;;;;;5092284;28;20058;-67
2022/01/22 04:03:33;;;;;;;4.40;1.20;;;6.40;99.90;;;;;;5093148;28;20537;-67
2022/01/22 04:08:25;;;;;;;9.35;2.00;;;6.30;99.90;;;;;;5094747;28;20055;-66
2022/01/22 04:10:50;;;;;;;6.68;1.30;;;6.30;99.90;;;;;;5093018;28;20040;-66
2022/01/22 04:13:18;;;;;;;11.18;1.95;;;6.30;99.90;;;;;;5093433;28;20137;-68
2022/01/22 04:15:45;;;;;;;5.40;1.45;;;6.30;99.90;;;;;;5092204;28;20052;-67
2022/01/22 04:26:42;;;;;;;5.97;1.67;;;6.30;99.90;;;;;;5074045;28;20052;-67
2022/01/22 04:29:08;;;;;;;3.90;1.25;;;6.30;99.90;;;;;;5073843;28;20051;-68
2022/01/22 04:31:34;;;;;;;8.70;1.67;;;6.30;99.90;;;;;;5073608;28;20052;-67
2022/01/22 04:34:00;;;;;;;8.55;1.83;;;6.30;99.90;;;;;;5108846;27;20131;-67
2022/01/22 04:36:25;;;;;;;4.93;1.52;;;6.30;99.90;;;;;;5072581;28;20059;-66
2022/01/22 04:38:51;;;;;;;8.88;1.77;;;6.30;99.90;;;;;;5095875;28;20048;-67
2022/01/22 04:41:17;;;;;;;3.97;1.30;;;6.30;99.90;;;;;;5106324;28;20401;-67
2022/01/22 04:43:44;;;;;;;4.45;1.92;;;6.30;99.90;;;;;;5106772;28;20048;-68
2022/01/22 04:46:19;;;;;;;6.95;1.55;;;6.30;99.90;;;;;;5107626;27;20126;-67
2022/01/22 04:56:57;;;;;;;7.20;1.70;;;6.30;99.90;;;;;;5093888;28;20056;-67
2022/01/22 04:59:22;;;;;;;5.00;1.52;;;6.30;99.90;;;;;;5082797;28;20489;-67
2022/01/22 05:01:48;;;;;;;4.80;1.63;;;6.30;99.90;;;;;;5072416;28;20071;-66
2022/01/22 05:04:13;;;;;;;6.05;1.40;;;6.30;99.90;;;;;;5089276;28;20477;-68
2022/01/22 05:06:39;;;;;;;6.63;1.70;;;6.30;99.90;;;;;;5072123;28;20054;-67
2022/01/22 05:09:05;;;;;;;4.90;1.50;;;6.30;99.90;;;;;;5071970;28;20048;-66
2022/01/22 05:11:31;;;;;;;6.32;1.67;;;6.20;99.90;;;;;;5071704;28;20052;-68
2022/01/22 05:13:57;;;;;;;3.15;1.30;;;6.20;99.90;;;;;;5095927;28;20055;-67
2022/01/22 05:16:23;;;;;;;6.45;1.55;;;6.20;99.90;;;;;;5071257;28;20053;-67
2022/01/22 05:18:58;;;;;;;5.35;1.60;;;6.20;99.90;;;;;;5073184;28;20341;-67
2022/01/22 05:21:26;;;;;;;4.70;1.48;;;6.30;99.90;;;;;;5106017;28;20166;-68
2022/01/22 05:23:53;;;;;;;4.95;1.70;;;6.30;99.90;;;;;;5105755;28;20118;-69
2022/01/22 05:32:17;;;;;;;3.97;1.55;;;6.20;99.90;;;;;;5091563;28;20136;-67
2022/01/22 05:37:16;;;;;;;6.25;1.55;;;6.30;99.90;;;;;;5093029;28;20056;-68
2022/01/22 05:39:42;;;;;;;3.72;1.30;;;6.20;99.90;;;;;;5091662;28;20071;-68
2022/01/22 05:42:09;;;;;;;3.25;1.23;;;6.20;99.90;;;;;;5091742;28;20052;-68
2022/01/22 05:44:35;;;;;;;8.30;1.67;;;6.20;99.90;;;;;;5093241;28;20368;-67
2022/01/22 05:47:05;;;;;;;3.22;1.20;;;6.20;99.90;;;;;;5090653;28;20132;-67
2022/01/22 05:49:34;;;;;;;2.42;1.20;;;6.30;99.90;;;;;;5091958;28;20069;-68
2022/01/22 05:52:02;;;;;;;4.03;1.38;;;6.20;99.90;;;;;;5091789;28;20044;-67
2022/01/22 05:59:42;;;;;;;4.25;1.08;;;6.20;99.90;;;;;;5096111;28;20052;-67
2022/01/22 06:02:13;;;;;;;4.10;1.15;;;6.30;99.90;;;;;;5095427;28;20125;-67
2022/01/22 06:04:40;;;;;;;6.18;1.48;;;6.30;99.90;;;;;;5097112;28;20052;-67
2022/01/22 06:07:08;;;;;;;6.18;1.58;;;6.20;99.90;;;;;;5092501;28;20044;-68
2022/01/22 06:09:38;;;;;;;2.97;1.23;;;6.30;99.90;;;;;;5097375;28;20480;-67
2022/01/22 06:12:16;;;;;;;5.07;1.48;;;6.20;99.90;;;;;;5096863;28;20052;-67
2022/01/22 06:14:42;;;;;;;5.35;1.77;;;6.20;99.90;;;;;;5075225;28;20048;-67
2022/01/22 06:17:08;;;;;;;8.85;1.95;;;6.20;99.90;;;;;;5096698;28;20052;-67
2022/01/22 06:19:34;;;;;;;4.43;1.42;;;6.20;99.90;;;;;;5095388;28;20548;-67
2022/01/22 06:21:59;;;;;;;7.30;1.70;;;6.20;99.90;;;;;;5095783;28;20063;-67
2022/01/22 06:24:25;;;;;;;6.30;1.88;;;6.20;99.90;;;;;;5074916;28;20084;-68
2022/01/22 06:26:51;;;;;;;5.97;1.80;;;6.20;99.90;;;;;;5092645;28;20101;-67
2022/01/22 06:29:17;;;;;;;7.88;2.25;;;6.20;99.90;;;;;;5100018;28;20474;-67
2022/01/22 06:31:43;;;;;;;6.47;1.90;;;6.20;99.90;;;;;;5075900;28;20493;-67
2022/01/22 06:34:09;;;;;;;10.70;2.75;;;6.20;99.90;;;;;;5108821;28;20120;-68
2022/01/22 06:36:34;;;;;;;7.80;1.77;;;6.20;99.90;;;;;;5091940;28;20128;-68
2022/01/22 06:39:12;;;;;;;7.13;1.98;;;6.20;99.90;;;;;;5088171;28;20113;-67
2022/01/22 06:41:45;;;;;;;8.35;2.10;;;6.20;99.90;;;;;;5094782;28;20040;-67
2022/01/22 06:44:22;;;;;;;5.88;1.80;;;6.20;99.90;;;;;;5093265;28;20105;-68
2022/01/22 06:46:51;;;;;;;3.95;1.20;;;6.20;99.90;;;;;;5094858;28;20059;-69
2022/01/22 06:49:17;;;;;;;5.93;1.63;;;6.20;99.90;;;;;;5074398;28;20056;-66
2022/01/22 06:51:43;;;;;;;6.57;1.80;;;6.20;99.90;;;;;;5082137;28;20044;-68
2022/01/22 06:54:10;;;;;;;9.45;3.05;;;6.20;99.90;;;;;;5095090;28;20048;-66
2022/01/22 06:56:37;;;;;;;7.72;2.42;;;6.20;99.90;;;;;;5095855;28;20553;-66
2022/01/22 06:59:03;;;;;;;9.70;2.00;;;6.20;99.90;;;;;;5092362;28;20389;-68
2022/01/22 07:01:29;;;;;;;5.50;1.77;;;6.20;99.90;;;;;;5080872;28;20051;-67
2022/01/22 07:03:55;;;;;;;6.13;2.03;;;6.20;99.90;;;;;;5076110;28;20489;-69
2022/01/22 07:06:23;;;;;;;5.60;2.47;;;6.20;99.90;;;;;;5104039;28;20385;-66
2022/01/22 07:08:49;;;;;;;4.07;2.17;;;6.20;99.90;;;;;;5091413;28;20100;-67
2022/01/22 07:11:15;;;;;;;5.55;2.50;;;6.20;99.90;;;;;;5077438;28;20430;-67
2022/01/22 07:13:41;;;;;;;2.67;1.65;;;6.20;99.90;;;;;;5094844;28;20084;-68
2022/01/22 07:16:07;;;;;;;3.67;1.90;;;6.20;99.90;;;;;;5088920;28;20492;-67
2022/01/22 07:18:33;;;;;;;8.63;2.53;;;6.20;99.90;;;;;;5094046;28;20048;-68
2022/01/22 07:21:02;;;;;;;4.97;2.70;;;6.20;99.90;;;;;;5085363;28;20061;-66
2022/01/22 07:26:00;;;;;;;5.17;1.90;;;6.20;99.90;;;;;;5079808;28;20123;-67
2022/01/22 07:28:26;;;;;;;4.05;1.58;;;6.20;99.90;;;;;;5093929;28;20178;-67
2022/01/22 07:30:52;;;;;;;5.63;2.10;;;6.20;99.90;;;;;;5092119;28;20521;-68
2022/01/22 07:33:18;;;;;;;6.13;1.77;;;6.20;99.90;;;;;;5093971;28;20052;-67
2022/01/22 07:35:44;;;;;;;3.17;1.70;;;6.10;99.90;;;;;;5093986;28;20055;-66
2022/01/22 07:38:10;;;;;;;3.88;1.60;;;6.10;99.90;;;;;;5095333;28;20051;-67
2022/01/22 07:40:36;;;;;;;3.03;1.63;;;6.10;99.90;;;;;;5093624;28;20054;-67
2022/01/22 07:43:02;;;;;;;5.00;1.50;;;6.10;99.90;;;;;;5095670;28;20472;-67
2022/01/22 07:45:27;;;;;;;4.80;1.27;;;6.10;99.90;;;;;;5093374;28;20044;-67
2022/01/22 07:47:53;;;;;;;3.60;0.90;;;6.10;99.90;;;;;;5091627;28;20082;-68
2022/01/22 07:50:19;;;;;;;4.32;1.60;;;6.20;99.90;;;;;;5092555;28;20517;-67
2022/01/22 07:52:44;;;;;;;3.03;1.55;;;6.10;99.90;;;;;;5089683;28;20454;-66
2022/01/22 07:55:10;;;;;;;2.67;1.33;;;6.10;99.90;;;;;;5074921;28;20171;-66
2022/01/22 07:57:36;;;;;;;3.50;1.83;;;6.10;99.90;;;;;;5074388;28;20052;-66
2022/01/22 08:00:05;;;;;;;4.30;1.65;;;6.10;99.90;;;;;;5101668;28;20076;-68
2022/01/22 08:02:30;;;;;;;3.38;1.63;;;6.10;99.90;;;;;;5093647;28;20052;-68
2022/01/22 08:04:57;;;;;;;3.92;1.30;;;;;;;;;;5092922;28;20050;-68
2022/01/22 08:07:22;;;;;;;3.00;1.35;;;6.10;99.90;;;;;;5076367;28;20075;-67
2022/01/22 08:09:50;;;;;;;4.80;1.30;;;6.10;99.90;;;;;;5085829;28;20484;-68
2022/01/22 08:12:16;;;;;;;6.53;1.98;;;6.10;99.90;;;;;;5077528;28;20056;-68
2022/01/22 08:14:42;;;;;;;3.65;1.50;;;6.10;99.90;;;;;;5075379;28;20485;-69
2022/01/22 08:17:08;;;;;;;4.45;1.40;;;6.10;99.90;;;;;;5083163;28;20117;-67
2022/01/22 08:19:33;;;;;;;1.40;1.20;;;6.10;99.90;;;;;;5093113;28;20047;-68
2022/01/22 08:21:59;;;;;;;3.80;1.42;;;6.10;99.90;;;;;;5090026;28;20048;-67
2022/01/22 08:24:26;;;;;;;5.18;1.80;;;6.10;99.90;;;;;;5093241;28;20047;-68
2022/01/22 08:27:21;;;;;;;1.63;1.45;;;6.10;99.90;;;;;;5093205;28;20052;-67
2022/01/22 08:29:39;;;;;;;4.07;1.67;;;6.10;99.90;;;;;;5091844;28;20081;-67
2022/01/22 08:37:28;;;;;;;5.03;1.50;;;6.10;99.90;;;;;;5092595;28;20547;-67
2022/01/22 08:39:54;;;;;;;3.78;1.67;;;6.10;99.90;;;;;;5093760;28;20143;-66
2022/01/22 08:42:21;;;;;;;3.25;1.30;;;6.10;99.90;;;;;;5092955;28;20075;-68
2022/01/22 08:44:47;;;;;;;7.75;1.80;;;6.20;99.90;;;;;;5075485;28;20070;-69
2022/01/22 08:47:14;;;;;;;5.35;1.50;;;6.20;99.90;;;;;;5092861;28;20124;-67
2022/01/22 08:49:39;;;;;;;4.05;1.50;;;6.20;99.90;;;;;;5075448;28;20055;-67
2022/01/22 08:52:14;;;;;;;4.45;1.52;;;6.20;99.90;;;;;;5092767;28;20064;-66
2022/01/22 08:54:40;;;;;;;4.05;1.50;;;6.20;99.90;;;;;;5093875;28;20075;-66
2022/01/22 08:57:06;;;;;;;5.57;1.92;;;6.10;99.90;;;;;;5075688;28;20059;-68
2022/01/22 08:59:32;;;;;;;4.78;1.67;;;6.20;99.90;;;;;;5075716;28;20396;-68
2022/01/22 09:01:58;;;;;;;8.75;1.83;;;6.20;99.90;;;;;;5092346;28;20055;-66
2022/01/22 09:04:24;;;;;;;3.70;1.88;;;6.20;99.90;;;;;;5092141;28;20056;-67
2022/01/22 09:06:49;;;;;;;9.30;1.90;;;6.20;99.90;;;;;;5092368;28;20054;-67
2022/01/22 09:09:15;;;;;;;6.10;1.90;;;6.10;99.90;;;;;;5093092;28;20048;-68
2022/01/22 09:11:43;;;;;;;7.05;1.75;;;6.10;99.90;;;;;;5093627;28;20059;-66
2022/01/22 09:14:11;;;;;;;7.57;2.00;;;6.20;99.90;;;;;;5091426;28;20119;-68
2022/01/22 09:16:38;;;;;;;4.30;2.00;;;6.20;99.90;;;;;;5092433;28;20059;-66
2022/01/22 09:19:06;;;;;;;7.18;2.28;;;6.20;99.90;;;;;;5093825;28;20412;-67
2022/01/22 09:21:37;;;;;;;7.38;2.70;;;6.20;99.90;;;;;;5092083;28;20080;-66
2022/01/22 09:24:04;;;;;;;11.45;2.85;;;6.20;99.90;;;;;;5092190;28;20109;-67
2022/01/22 09:26:30;;;;;;;10.57;2.72;;;6.20;99.90;;;;;;5091810;28;20048;-67
2022/01/22 09:28:58;;;;;;;8.05;3.00;;;6.20;99.90;;;;;;5091832;28;20063;-67
2022/01/22 09:31:25;;;;;;;6.43;2.90;;;6.20;99.90;;;;;;5091013;28;20048;-67
2022/01/22 09:33:51;;;;;;;6.35;2.97;;;6.20;99.90;;;;;;5093384;28;20094;-67
2022/01/22 09:36:16;;;;;;;5.97;2.90;;;6.20;99.90;;;;;;5088710;28;20047;-67
2022/01/22 09:38:42;;;;;;;7.35;2.65;;;6.30;99.90;;;;;;5074621;28;20055;-68
2022/01/22 09:41:08;;;;;;;7.63;2.58;;;6.30;99.90;;;;;;5083215;28;20131;-68
2022/01/22 09:43:33;;;;;;;9.25;2.80;;;6.30;99.90;;;;;;5071683;28;20161;-67
2022/01/22 09:45:59;;;;;;;12.20;3.22;;;6.30;99.90;;;;;;5088479;28;20392;-66
2022/01/22 09:48:25;;;;;;;7.80;2.67;;;6.30;99.90;;;;;;5091820;28;20124;-67
2022/01/22 09:50:51;;;;;;;8.23;2.80;;;6.30;99.90;;;;;;5089328;28;20112;-67
2022/01/22 09:53:19;;;;;;;7.50;3.20;;;6.40;99.90;;;;;;5090878;28;20093;-67
2022/01/22 09:55:45;;;;;;;7.60;2.38;;;6.40;99.90;;;;;;5091678;28;20052;-67
2022/01/22 09:58:10;;;;;;;11.80;2.90;;;6.50;99.90;;;;;;5092493;28;20071;-68
2022/01/22 10:00:36;;;;;;;12.18;2.92;;;6.50;99.90;;;;;;5117185;28;20052;-67
2022/01/22 10:03:02;;;;;;;7.38;2.97;;;6.50;99.90;;;;;;5081747;28;20047;-66
2022/01/22 10:05:32;;;;;;;9.07;2.33;;;6.50;99.90;;;;;;5091158;28;20052;-70
2022/01/22 10:08:36;;;;;;;8.20;2.25;;;6.60;99.90;;;;;;5092752;28;20067;-67
2022/01/22 10:11:02;;;;;;;8.63;2.50;;;6.60;99.90;;;;;;5090133;28;20106;-67
2022/01/22 10:13:46;;;;;;;6.13;2.22;;;6.60;99.90;;;;;;5074508;28;20056;-68
2022/01/22 10:16:15;;;;;;;9.00;2.70;;;6.60;99.90;;;;;;5091560;28;20055;-67
2022/01/22 10:18:41;;;;;;;9.35;2.50;;;6.60;99.90;;;;;;5091649;28;20044;-67
2022/01/22 10:21:12;;;;;;;9.15;2.70;;;6.60;99.90;;;;;;5086220;28;20507;-67
2022/01/22 10:23:39;;;;;;;10.60;2.78;;;6.60;99.90;;;;;;5092496;28;20498;-68
2022/01/22 10:26:09;;;;;;;8.35;3.47;;;6.60;99.90;;;;;;5091362;28;20055;-67
2022/01/22 10:28:40;;;;;;;14.93;2.67;;;6.60;99.90;;;;;;5092763;28;20055;-68
2022/01/22 10:31:17;;;;;;;11.18;3.25;;;6.60;99.90;;;;;;5091423;28;20154;-68
2022/01/22 10:33:43;;;;;;;12.77;3.47;;;6.60;99.90;;;;;;5092748;28;20050;-66
2022/01/22 10:36:16;;;;;;;10.82;3.20;;;6.70;99.90;;;;;;5074341;28;20131;-68
2022/01/22 10:38:45;;;;;;;;;;;6.70;99.90;;;;;;5089843;28;20135;-67
2022/01/22 10:41:16;;;;;;;11.93;3.30;;;6.70;99.90;;;;;;5091985;28;20296;-67
2022/01/22 10:43:54;;;;;;;7.57;3.03;;;6.70;99.90;;;;;;5092555;28;20127;-66
2022/01/22 10:46:33;;;;;;;12.57;3.58;;;6.70;99.90;;;;;;5090295;28;20428;-65
2022/01/22 10:49:00;;;;;;;13.13;3.88;;;;;;;;;;5075243;28;20044;-66
2022/01/22 10:51:29;;;;;;;9.52;3.20;;;6.80;99.90;;;;;;5089993;28;20052;-68
2022/01/22 10:53:59;;;;;;;8.07;2.88;;;6.90;99.90;;;;;;5094598;28;20044;-68
2022/01/22 10:56:26;;;;;;;12.20;3.65;;;6.90;99.90;;;;;;5094857;28;20508;-67
2022/01/22 10:59:05;;;;;;;9.63;2.58;;;6.90;99.90;;;;;;5076103;28;20130;-67
2022/01/22 11:01:55;;;;;;;8.20;2.35;;;6.90;99.90;;;;;;5115713;27;20055;-68
2022/01/22 11:04:29;;;;;;;10.65;2.53;;;6.90;99.90;;;;;;5094684;28;20156;-67
2022/01/22 11:07:05;;;;;;;14.13;2.67;;;6.90;99.90;;;;;;5095407;28;20090;-67
2022/01/22 11:09:32;;;;;;;11.38;2.72;;;6.90;99.90;;;;;;5107856;28;20063;-67
2022/01/22 11:12:02;;;;;;;10.75;2.63;;;6.90;99.90;;;;;;5107775;28;20045;-66
2022/01/22 11:14:30;;;;;;;5.78;1.98;;;6.90;99.90;;;;;;5075590;28;20056;-67
2022/01/22 11:16:56;;;;;;;10.30;2.92;;;6.90;99.90;;;;;;5076233;28;20151;-68
2022/01/22 11:19:30;;;;;;;8.80;3.13;;;7.00;99.90;;;;;;5074357;28;20060;-66
2022/01/22 11:21:57;;;;;;;10.60;2.95;;;7.00;99.90;;;;;;5093952;28;20135;-67
2022/01/22 11:24:25;;;;;;;6.30;2.40;;;6.90;99.90;;;;;;5094502;28;20137;-67
2022/01/22 11:26:54;;;;;;;10.23;2.95;;;6.90;99.90;;;;;;5093455;28;20118;-66
2022/01/22 11:29:26;;;;;;;12.65;3.03;;;6.90;99.90;;;;;;5095682;28;20052;-67
2022/01/22 11:31:54;;;;;;;14.60;3.22;;;7.00;99.90;;;;;;5094323;28;20063;-67
2022/01/22 11:34:25;;;;;;;12.68;3.33;;;7.00;99.90;;;;;;5074247;28;20147;-67
2022/01/22 11:37:11;;;;;;;6.93;2.70;;;7.00;99.90;;;;;;5075012;28;20052;-67
2022/01/22 11:39:37;;;;;;;12.95;3.05;;;7.00;99.90;;;;;;5075348;28;20056;-67
2022/01/22 11:42:04;;;;;;;7.05;2.83;;;7.00;99.90;;;;;;5073664;28;20053;-68
2022/01/22 11:44:46;;;;;;;8.45;3.03;;;7.00;99.90;;;;;;5086521;28;20056;-67
2022/01/22 11:47:20;;;;;;;8.83;3.00;;;7.00;99.90;;;;;;5117961;27;20143;-67
2022/01/22 11:50:06;;;;;;;8.32;2.90;;;7.00;99.90;;;;;;5091600;28;20665;-66
2022/01/22 11:52:36;;;;;;;10.05;3.15;;;6.90;99.90;;;;;;5092590;28;20079;-67
2022/01/22 11:55:12;;;;;;;12.93;3.80;;;6.90;99.90;;;;;;5092899;28;20051;-66
2022/01/22 11:57:39;;;;;;;7.72;3.65;;;6.90;99.90;;;;;;5091070;28;20128;-67
2022/01/22 12:00:27;;;;;;;11.93;3.97;;;6.90;99.90;;;;;;5093400;28;20048;-68
2022/01/22 12:03:08;;;;;;;10.55;4.20;;;6.90;99.90;;;;;;5091552;28;20138;-67
2022/01/22 12:05:52;;;;;;;9.27;4.10;;;7.00;99.90;;;;;;5118381;27;20052;-66
2022/01/22 12:08:18;;;;;;;8.05;3.45;;;7.00;99.90;;;;;;5091290;28;20484;-68
2022/01/22 12:14:26;;;;;;;14.85;4.43;;;6.90;99.90;;;;;;5085941;28;20154;-67
2022/01/22 12:16:44;;;;;;;8.35;4.35;;;6.90;99.90;;;;;;5073736;28;20052;-68
2022/01/22 12:19:49;;;;;;;13.80;4.28;;;7.00;99.90;;;;;;5091927;28;20385;-68
2022/01/22 12:23:00;;;;;;;10.20;4.40;;;6.90;99.90;;;;;;5108424;28;20044;-65
2022/01/22 12:25:28;;;;;;;12.07;5.30;;;7.00;99.90;;;;;;5092385;28;20443;-66
2022/01/22 12:27:55;;;;;;;12.52;4.53;;;6.90;99.90;;;;;;5090914;28;20052;-66
2022/01/22 12:30:36;;;;;;;11.57;5.22;;;7.00;99.90;;;;;;5074778;28;20154;-67
2022/01/22 12:33:05;;;;;;;8.25;4.50;;;7.00;99.90;;;;;;5111268;28;20182;-68
2022/01/22 12:35:35;;;;;;;11.15;5.03;;;7.00;99.90;;;;;;5112249;28;20043;-67
2022/01/22 12:38:43;;;;;;;11.35;4.85;;;6.90;99.90;;;;;;5112106;28;20147;-67
2022/01/22 12:44:19;;;;;;;9.82;3.17;;;6.90;99.90;;;;;;5094224;28;20048;-67
2022/01/22 12:46:45;;;;;;;11.03;5.00;;;6.90;99.90;;;;;;5110714;28;20051;-67
2022/01/22 12:49:14;;;;;;;9.32;3.72;;;6.90;99.90;;;;;;5109544;28;20059;-67
2022/01/22 12:51:40;;;;;;;11.88;3.78;;;6.90;99.90;;;;;;5093055;28;20048;-66
2022/01/22 12:54:06;;;;;;;8.57;3.80;;;6.90;99.90;;;;;;5092414;28;20047;-67
2022/01/22 12:59:08;;;;;;;7.10;3.05;;;7.00;99.90;;;;;;5091867;28;20548;-66
2022/01/22 13:01:36;;;;;;;10.45;3.42;;;7.00;99.90;;;;;;5090155;28;20192;-66
2022/01/22 13:04:06;;;;;;;16.20;4.32;;;7.00;99.90;;;;;;5086335;28;20124;-67
2022/01/22 13:06:51;;;;;;;11.32;3.35;;;7.00;99.90;;;;;;5093085;28;20052;-67
2022/01/22 13:09:17;;;;;;;11.35;3.90;;;7.10;99.90;;;;;;5091971;28;20056;-67
2022/01/22 13:11:49;;;;;;;12.77;3.88;;;7.10;99.90;;;;;;5092318;28;20063;-67
2022/01/22 13:14:17;;;;;;;11.95;3.65;;;7.10;99.90;;;;;;5091706;28;20048;-66
2022/01/22 13:16:49;;;;;;;9.85;3.28;;;7.10;99.90;;;;;;5091653;28;20483;-67
2022/01/22 13:19:15;;;;;;;9.95;3.05;;;7.10;99.90;;;;;;5093247;28;20054;-68
2022/01/22 13:21:58;;;;;;;5.68;2.60;;;7.10;99.90;;;;;;5092262;28;20087;-67
2022/01/22 13:24:25;;;;;;;7.95;2.88;;;7.10;99.90;;;;;;5093370;28;20051;-67
2022/01/22 13:29:31;;;;;;;8.52;3.17;;;7.10;99.90;;;;;;5091534;28;20079;-67
2022/01/22 13:32:31;;;;;;;9.07;3.20;;;7.10;99.90;;;;;;5091717;28;20063;-66
2022/01/22 13:38:18;;;;;;;10.63;3.47;;;7.10;99.90;;;;;;5091550;28;20048;-67
2022/01/22 13:49:00;;;;;;;7.75;2.83;;;7.00;99.90;;;;;;5093090;28;20052;-67
2022/01/22 13:51:27;;;;;;;6.35;2.60;;;7.00;99.90;;;;;;5091460;28;20056;-68
2022/01/22 13:53:58;;;;;;;9.63;2.55;;;7.00;99.90;;;;;;5091537;28;20509;-67
2022/01/22 13:56:47;;;;;;;7.53;2.70;;;7.00;99.90;;;;;;5092717;28;20083;-68
2022/01/22 13:59:17;;;;;;;9.23;3.08;;;7.00;99.90;;;;;;5092160;28;20044;-67
2022/01/22 14:02:06;;;;;;;8.38;2.30;;;7.00;99.90;;;;;;5090569;28;20051;-68
2022/01/22 14:04:38;;;;;;;9.80;2.33;;;7.00;99.90;;;;;;5092648;28;20058;-69
2022/01/22 14:07:33;;;;;;;7.53;2.25;;;7.00;99.90;;;;;;5074788;28;20079;-66
2022/01/22 14:10:12;;;;;;;8.25;2.42;;;6.90;99.90;;;;;;5091227;28;20084;-66
2022/01/22 14:12:59;;;;;;;6.68;2.35;;;6.90;99.90;;;;;;5091878;28;20056;-67
2022/01/22 14:15:41;;;;;;;5.55;2.35;;;6.90;99.90;;;;;;5091146;28;20048;-67
2022/01/22 14:18:32;;;;;;;7.78;3.08;;;6.90;99.90;;;;;;5093396;28;20479;-67
2022/01/22 14:20:54;;;;;;;6.18;2.53;;;6.90;99.90;;;;;;5094599;28;20052;-67
2022/01/22 14:23:23;;;;;;;10.02;2.83;;;6.90;99.90;;;;;;5096898;28;20055;-68
2022/01/22 14:26:02;;;;;;;11.05;3.08;;;6.90;99.90;;;;;;5094969;28;20056;-67
2022/01/22 14:28:51;;;;;;;7.38;3.20;;;6.90;99.90;;;;;;5094735;28;20051;-67
2022/01/22 14:31:27;;;;;;;9.07;2.42;;;6.80;99.90;;;;;;5083312;28;20093;-67
2022/01/22 14:33:57;;;;;;;5.97;2.50;;;6.80;99.90;;;;;;5067443;28;20048;-68
2022/01/22 14:36:37;;;;;;;6.80;2.17;;;6.80;99.90;;;;;;5094783;28;20059;-67
2022/01/22 14:39:30;;;;;;;5.95;2.13;;;6.80;99.90;;;;;;5094630;28;20060;-67
2022/01/22 14:44:57;;;;;;;10.35;2.40;;;6.70;99.90;;;;;;5080234;28;20039;-67
2022/01/22 14:47:26;;;;;;;9.88;2.35;;;6.70;99.90;;;;;;5095887;28;20051;-68
2022/01/22 14:50:10;;;;;;;5.55;2.00;;;6.70;99.90;;;;;;5096341;28;20059;-67
2022/01/22 14:52:36;;;;;;;7.75;2.00;;;6.70;99.90;;;;;;5126199;27;20093;-69
2022/01/22 14:55:06;;;;;;;4.75;1.70;;;6.70;99.90;;;;;;5087883;28;20528;-67
2022/01/22 14:57:34;;;;;;;9.70;2.08;;;6.90;99.90;;;;;;5108146;28;20059;-67
2022/01/22 15:00:06;;;;;;;4.65;2.00;;;6.70;99.90;;;;;;5074526;28;20052;-67